Pagina principale
METAR-TAF:

METAR-TAF

Aeroporti :

Grenchen, Svizzera

latitudine: 47-10-53N, longitudine: 007-24-59E, altezza: 430 m

Osservazione

Il bollettino è stato emesso 44 minuti fa, alle 16:50 UTC
Vento 6 kt da ovest/sud-ovest
Temperature 21°C
Umidità 33%
Pressione 1015 hPa
Visibilità 10 km o più
nessuna nube inferiore a 1500 m e nessun cumulonembo

METAR: LSZG 131650Z 24006KT CAVOK 21/04 Q1015

Ora: 19:34 (17:34 UTC)

Previsione

Il bollettino è stato emesso 3 ore e 9 minuti fa, alle 14:25 UTC
Previsione valida dal 13 alle 15 UTC al 13 alle 24 UTC
Vento 2 kt da direzioni variabili
Visibilità 10 km o più
Nubi sparse ad un'altezza di 6000 ft
Evoluzione graduale
dal 13 alle 15 UTC al 13 alle 18 UTC
Visibilità 10 km o più
nessuna nube inferiore a 1500 m e nessun cumulonembo

TAF: LSZG 131425Z 1315/1324 VRB02KT 9999 SCT060 BECMG 1315/1318 CAVOK

Osservazioni e previsioni meteorologiche di più di 4000 aeroporti (messaggi METAR e TAF).

Le stazioni disponibili sono rappresentate dai dischi gialli e rossi sulla carta.

Puntare il mouse per vedere il nome della stazione.

Clicca sopra per visualizzare le osservazioni e previsioni meteorologiche.

Per cambiare la mappa : fare clic sui pulsanti verdi con una croce nera per ingrandire, il pulsante verde con un trattino per diminuire, o sulla freccia verde per le mappe adiacenti.


METAR-TAF: